Aérodrome :
LOGIN :

S'inscrire | Disclaimer

   EN    FR    IT 

 










Légende :    VFR   VFR Marginal   IFR   IFR Intensif   IFR Très Intensif
Visi : 
Plafond : 
>= 8 km
>= 3000ft
5 à 8 km
1000 à 3000 ft
1500m à 5 km
500 à 1000 ft
800 à 1500m
200 à 500 ft
< 800m
< 200 ft
Symboles :   Orages  Brouillard  Fortes neiges  Fortes précipitations  Vent > 20 kt
SIGMETs :   Divers  Orages  Givrage  Turbulence  Onde Orograph.  Cendres Volcan.






- Altitude de l'aérodrome : 268 ft
- Code IATA : BFS


EGAA - Belfast Aldergrove

DERNIER METAR :
  • 170220Z 22020G30KT 9999 SCT019 BKN025 05/03 Q0987

METARs EXPIRÉS :
  • 170150Z 23021G33KT 9999 -RA BKN020 05/03 Q0986
  • 170120Z 22022G33KT 9999 -RA BKN023 06/02 Q0986
  • 170050Z 22024G36KT 9999 -RA BKN026 06/02 Q0985
  • 170020Z 22022G34KT 9999 SCT029 BKN035 06/02 Q0985

TAF TAF EGAA
Valide du 17 à 00h jusqu'au 18 à 00h UTC


162300Z 1700/1724 22020G35KT 9999 FEW020 SCT030
TEMPO 1700/1710 7000 SHRA
BECMG 1702/1706 24016KT
TEMPO 1710/1724 24018G28KT 7000 SHRA
PROB40
TEMPO 1716/1724 4000 SHRASN BKN008



MET'MAP, la Météo Aéronautique d'un coup d'oeil ! - Copyright ORBIFLY Décembre 2007 - Disclaimer

ORBIFLY MET'MAP TEAM :

Programmation & Développement : Alexandra Zaïnal
Sur une idée originale de : Baudouin d'Aumeries
Assistance à la programmation : Marc-Olivier Méhu
Soutien technique & logistique : Manuel Goepfert

Contact : metmap@orbifly.com




SOURCES & CREDITS :

   NOAA